AFR840 TFFR-TFFF
Flight info
| Callsign | AFR840 |
|---|---|
| Flight time | 0h 26m |
| Altitude | 14000 |
| Route | KATIM2F KATIM DCT KAREX DCT FOF |
| Aircraft | A359/H-SDE2E3GHIJ3J4J5LM1ORWXY/LB1D1 |
Departure
| Time | 2026-05-06 14:21 |
|---|---|
| Airport | Maryse Condé International Airport (TFFR) |
Arrival
| Time | 2026-05-06 14:47 |
|---|---|
| Airport | Martinique Aimé Césaire International Airport (TFFF) |
| Time | Latitude | Longitude | Altitude | Speed | Heading |
|---|---|---|---|---|---|
| 2026-05-06 13:57 | 16.26886 | -61.52610 | 38 ft | 0 kts | 344° |
| 2026-05-06 14:09 | 16.26866 | -61.52603 | 38 ft | 4 kts | 336° |
| 2026-05-06 14:10 | 16.26841 | -61.52590 | 36 ft | 4 kts | 329° |
| 2026-05-06 14:10 | 16.26818 | -61.52575 | 36 ft | 4 kts | 324° |
| 2026-05-06 14:10 | 16.26806 | -61.52566 | 35 ft | 3 kts | 324° |
| 2026-05-06 14:11 | 16.26806 | -61.52582 | 35 ft | 5 kts | 265° |
| 2026-05-06 14:11 | 16.26805 | -61.52627 | 38 ft | 0 kts | 278° |
| 2026-05-06 14:14 | 16.26805 | -61.52629 | 38 ft | 1 kts | 278° |
| 2026-05-06 14:14 | 16.26807 | -61.52644 | 38 ft | 4 kts | 278° |
| 2026-05-06 14:14 | 16.26815 | -61.52690 | 37 ft | 9 kts | 281° |
| 2026-05-06 14:14 | 16.26829 | -61.52769 | 36 ft | 13 kts | 280° |
| 2026-05-06 14:15 | 16.26849 | -61.52873 | 36 ft | 12 kts | 279° |
| 2026-05-06 14:15 | 16.26804 | -61.52936 | 35 ft | 13 kts | 198° |
| 2026-05-06 14:15 | 16.26707 | -61.52956 | 35 ft | 16 kts | 190° |
| 2026-05-06 14:15 | 16.26590 | -61.52979 | 34 ft | 19 kts | 190° |
| 2026-05-06 14:16 | 16.26535 | -61.52992 | 33 ft | 5 kts | 203° |
| 2026-05-06 14:16 | 16.26507 | -61.53037 | 33 ft | 10 kts | 258° |
| 2026-05-06 14:16 | 16.26520 | -61.53128 | 33 ft | 16 kts | 281° |
| 2026-05-06 14:16 | 16.26545 | -61.53260 | 32 ft | 21 kts | 281° |
| 2026-05-06 14:17 | 16.26564 | -61.53365 | 32 ft | 24 kts | 281° |
| 2026-05-06 14:17 | 16.26597 | -61.53544 | 32 ft | 26 kts | 281° |
| 2026-05-06 14:17 | 16.26648 | -61.53814 | 28 ft | 31 kts | 282° |
| 2026-05-06 14:17 | 16.26676 | -61.53967 | 26 ft | 32 kts | 281° |
| 2026-05-06 14:18 | 16.26731 | -61.54263 | 23 ft | 29 kts | 281° |
| 2026-05-06 14:18 | 16.26758 | -61.54409 | 21 ft | 32 kts | 281° |
| 2026-05-06 14:18 | 16.26800 | -61.54631 | 18 ft | 16 kts | 281° |
| 2026-05-06 14:18 | 16.26831 | -61.54708 | 18 ft | 13 kts | 314° |
| 2026-05-06 14:19 | 16.26862 | -61.54760 | 19 ft | 5 kts | 256° |
| 2026-05-06 14:19 | 16.26834 | -61.54775 | 19 ft | 4 kts | 174° |
| 2026-05-06 14:19 | 16.26819 | -61.54757 | 18 ft | 4 kts | 117° |
| 2026-05-06 14:19 | 16.26817 | -61.54740 | 18 ft | 0 kts | 97° |
| 2026-05-06 14:20 | 16.26817 | -61.54738 | 18 ft | 3 kts | 98° |
| 2026-05-06 14:20 | 16.26772 | -61.54492 | 20 ft | 75 kts | 101° |
| 2026-05-06 14:20 | 16.26626 | -61.53703 | 30 ft | 145 kts | 101° |
| 2026-05-06 14:20 | 16.26422 | -61.52518 | 477 ft | 171 kts | 101° |
| 2026-05-06 14:21 | 16.26194 | -61.51336 | 1541 ft | 167 kts | 102° |
| 2026-05-06 14:21 | 16.25952 | -61.50074 | 2064 ft | 192 kts | 101° |
| 2026-05-06 14:21 | 16.25679 | -61.48619 | 2497 ft | 217 kts | 101° |
| 2026-05-06 14:21 | 16.25377 | -61.46978 | 3108 ft | 235 kts | 101° |
| 2026-05-06 14:22 | 16.25015 | -61.45297 | 3875 ft | 247 kts | 107° |
| 2026-05-06 14:22 | 16.24103 | -61.43776 | 4769 ft | 255 kts | 137° |
| 2026-05-06 14:22 | 16.22482 | -61.43002 | 5683 ft | 264 kts | 168° |
| 2026-05-06 14:22 | 16.20635 | -61.42832 | 6648 ft | 270 kts | 174° |
| 2026-05-06 14:23 | 16.18746 | -61.42735 | 7540 ft | 274 kts | 174° |
| 2026-05-06 14:23 | 16.16827 | -61.42621 | 8492 ft | 279 kts | 174° |
| 2026-05-06 14:23 | 16.14871 | -61.42487 | 9434 ft | 285 kts | 174° |
| 2026-05-06 14:23 | 16.12876 | -61.42341 | 10332 ft | 291 kts | 174° |
| 2026-05-06 14:24 | 16.10784 | -61.42182 | 10794 ft | 314 kts | 174° |
| 2026-05-06 14:24 | 16.08526 | -61.42006 | 11147 ft | 336 kts | 174° |
| 2026-05-06 14:24 | 16.06149 | -61.41821 | 11770 ft | 347 kts | 175° |
| 2026-05-06 14:24 | 16.03716 | -61.41630 | 12474 ft | 355 kts | 175° |
| 2026-05-06 14:25 | 16.01220 | -61.41435 | 13166 ft | 363 kts | 175° |
| 2026-05-06 14:25 | 15.98680 | -61.41236 | 13784 ft | 369 kts | 175° |
| 2026-05-06 14:25 | 15.96096 | -61.41140 | 14061 ft | 375 kts | 179° |
| 2026-05-06 14:25 | 15.93464 | -61.41139 | 14126 ft | 381 kts | 180° |
| 2026-05-06 14:26 | 15.90807 | -61.41138 | 14127 ft | 383 kts | 179° |
| 2026-05-06 14:26 | 15.88142 | -61.41125 | 14129 ft | 383 kts | 179° |
| 2026-05-06 14:26 | 15.85469 | -61.41103 | 14126 ft | 383 kts | 179° |
| 2026-05-06 14:26 | 15.82809 | -61.41076 | 14130 ft | 383 kts | 179° |
| 2026-05-06 14:27 | 15.80144 | -61.41046 | 14133 ft | 383 kts | 179° |
| 2026-05-06 14:27 | 15.77482 | -61.41016 | 14135 ft | 383 kts | 179° |
| 2026-05-06 14:27 | 15.74817 | -61.40985 | 14139 ft | 383 kts | 179° |
| 2026-05-06 14:27 | 15.72189 | -61.40954 | 14137 ft | 383 kts | 179° |
| 2026-05-06 14:28 | 15.69525 | -61.40922 | 14145 ft | 383 kts | 179° |
| 2026-05-06 14:28 | 15.66864 | -61.40889 | 14149 ft | 383 kts | 179° |
| 2026-05-06 14:28 | 15.64202 | -61.40857 | 14151 ft | 382 kts | 179° |
| 2026-05-06 14:28 | 15.61540 | -61.40824 | 14157 ft | 383 kts | 179° |
| 2026-05-06 14:29 | 15.58882 | -61.40790 | 14148 ft | 382 kts | 179° |
| 2026-05-06 14:29 | 15.56222 | -61.40758 | 14153 ft | 382 kts | 179° |
| 2026-05-06 14:29 | 15.53569 | -61.40727 | 14154 ft | 382 kts | 179° |
| 2026-05-06 14:29 | 15.50906 | -61.40694 | 14157 ft | 382 kts | 179° |
| 2026-05-06 14:30 | 15.48249 | -61.40661 | 14154 ft | 382 kts | 179° |
| 2026-05-06 14:30 | 15.45591 | -61.40628 | 14087 ft | 382 kts | 179° |
| 2026-05-06 14:30 | 15.42935 | -61.40595 | 14077 ft | 382 kts | 179° |
| 2026-05-06 14:30 | 15.40272 | -61.40550 | 14074 ft | 382 kts | 177° |
| 2026-05-06 14:31 | 15.37644 | -61.40246 | 14073 ft | 381 kts | 170° |
| 2026-05-06 14:31 | 15.35037 | -61.39774 | 14074 ft | 380 kts | 168° |
| 2026-05-06 14:31 | 15.32423 | -61.39283 | 14080 ft | 381 kts | 168° |
| 2026-05-06 14:31 | 15.29816 | -61.38797 | 14078 ft | 381 kts | 169° |
| 2026-05-06 14:32 | 15.27210 | -61.38314 | 14063 ft | 381 kts | 168° |
| 2026-05-06 14:32 | 15.24623 | -61.37836 | 13974 ft | 370 kts | 169° |
| 2026-05-06 14:32 | 15.22134 | -61.37379 | 13978 ft | 358 kts | 168° |
| 2026-05-06 14:32 | 15.19687 | -61.36929 | 13742 ft | 358 kts | 168° |
| 2026-05-06 14:33 | 15.17270 | -61.36484 | 13193 ft | 356 kts | 168° |
| 2026-05-06 14:33 | 15.14845 | -61.36039 | 12692 ft | 353 kts | 168° |
| 2026-05-06 14:33 | 15.12439 | -61.35597 | 12201 ft | 349 kts | 168° |
| 2026-05-06 14:33 | 15.10069 | -61.35161 | 11744 ft | 345 kts | 168° |
| 2026-05-06 14:34 | 15.07684 | -61.34725 | 11257 ft | 341 kts | 168° |
| 2026-05-06 14:34 | 15.05401 | -61.34307 | 10920 ft | 332 kts | 168° |
| 2026-05-06 14:34 | 15.03176 | -61.33900 | 10805 ft | 317 kts | 168° |
| 2026-05-06 14:34 | 15.01054 | -61.33512 | 10707 ft | 303 kts | 168° |
| 2026-05-06 14:35 | 14.99024 | -61.33141 | 10587 ft | 290 kts | 168° |
| 2026-05-06 14:35 | 14.97080 | -61.32784 | 10418 ft | 280 kts | 168° |
| 2026-05-06 14:35 | 14.95165 | -61.32431 | 10093 ft | 278 kts | 168° |
| 2026-05-06 14:35 | 14.93241 | -61.32076 | 9748 ft | 286 kts | 168° |
| 2026-05-06 14:36 | 14.91263 | -61.31711 | 9469 ft | 290 kts | 168° |
| 2026-05-06 14:36 | 14.89279 | -61.31348 | 9121 ft | 289 kts | 168° |
| 2026-05-06 14:36 | 14.87307 | -61.30987 | 8756 ft | 287 kts | 168° |
| 2026-05-06 14:36 | 14.85351 | -61.30630 | 8364 ft | 284 kts | 168° |
| 2026-05-06 14:37 | 14.83421 | -61.30244 | 8029 ft | 281 kts | 165° |
| 2026-05-06 14:37 | 14.81487 | -61.29928 | 7681 ft | 281 kts | 170° |
| 2026-05-06 14:37 | 14.79549 | -61.29744 | 7358 ft | 279 kts | 171° |
| 2026-05-06 14:37 | 14.77618 | -61.29576 | 7041 ft | 277 kts | 171° |
| 2026-05-06 14:38 | 14.75705 | -61.29407 | 6737 ft | 275 kts | 171° |
| 2026-05-06 14:38 | 14.73805 | -61.29237 | 6414 ft | 273 kts | 171° |
| 2026-05-06 14:38 | 14.71917 | -61.29067 | 6096 ft | 272 kts | 171° |
| 2026-05-06 14:38 | 14.70037 | -61.28896 | 5779 ft | 271 kts | 171° |
| 2026-05-06 14:39 | 14.68164 | -61.28726 | 5482 ft | 269 kts | 171° |
| 2026-05-06 14:39 | 14.66298 | -61.28554 | 5170 ft | 269 kts | 171° |
| 2026-05-06 14:39 | 14.64439 | -61.28383 | 4870 ft | 268 kts | 170° |
| 2026-05-06 14:39 | 14.62583 | -61.28215 | 4550 ft | 267 kts | 171° |
| 2026-05-06 14:40 | 14.60739 | -61.28048 | 4233 ft | 266 kts | 170° |
| 2026-05-06 14:40 | 14.58900 | -61.27871 | 3947 ft | 264 kts | 169° |
| 2026-05-06 14:40 | 14.57169 | -61.27404 | 3632 ft | 258 kts | 148° |
| 2026-05-06 14:40 | 14.55851 | -61.26196 | 3341 ft | 249 kts | 118° |
| 2026-05-06 14:41 | 14.55309 | -61.24607 | 3249 ft | 231 kts | 94° |
| 2026-05-06 14:41 | 14.55373 | -61.23004 | 3152 ft | 218 kts | 81° |
| 2026-05-06 14:41 | 14.55578 | -61.21497 | 3056 ft | 207 kts | 82° |
| 2026-05-06 14:41 | 14.55764 | -61.20065 | 2971 ft | 196 kts | 80° |
| 2026-05-06 14:42 | 14.55985 | -61.18730 | 2909 ft | 182 kts | 78° |
| 2026-05-06 14:42 | 14.56213 | -61.17490 | 2811 ft | 170 kts | 78° |
| 2026-05-06 14:42 | 14.56421 | -61.16337 | 2728 ft | 157 kts | 79° |
| 2026-05-06 14:42 | 14.56578 | -61.15242 | 2543 ft | 154 kts | 81° |
| 2026-05-06 14:43 | 14.56745 | -61.14152 | 2328 ft | 153 kts | 78° |
| 2026-05-06 14:43 | 14.56937 | -61.13077 | 2132 ft | 152 kts | 79° |
| 2026-05-06 14:43 | 14.57121 | -61.12000 | 1937 ft | 152 kts | 79° |
| 2026-05-06 14:43 | 14.57305 | -61.10921 | 1734 ft | 153 kts | 79° |
| 2026-05-06 14:44 | 14.57487 | -61.09849 | 1537 ft | 147 kts | 78° |
| 2026-05-06 14:44 | 14.57658 | -61.08845 | 1340 ft | 136 kts | 78° |
| 2026-05-06 14:44 | 14.57813 | -61.07930 | 1170 ft | 125 kts | 81° |
| 2026-05-06 14:45 | 14.58123 | -61.06180 | 934 ft | 124 kts | 78° |
| 2026-05-06 14:45 | 14.58272 | -61.05317 | 731 ft | 123 kts | 81° |
| 2026-05-06 14:45 | 14.58383 | -61.04446 | 557 ft | 122 kts | 76° |
| 2026-05-06 14:45 | 14.58546 | -61.03589 | 448 ft | 122 kts | 76° |
| 2026-05-06 14:46 | 14.58690 | -61.02741 | 239 ft | 116 kts | 76° |
| 2026-05-06 14:46 | 14.58832 | -61.01912 | 83 ft | 120 kts | 77° |
| 2026-05-06 14:46 | 14.58968 | -61.01123 | 28 ft | 95 kts | 80° |
| 2026-05-06 14:46 | 14.59064 | -61.00562 | 29 ft | 62 kts | 80° |
| 2026-05-06 14:47 | 14.59122 | -61.00225 | 29 ft | 40 kts | 80° |
| 2026-05-06 14:47 | 14.59142 | -61.00106 | 26 ft | 8 kts | 80° |
| 2026-05-06 14:47 | 14.59157 | -61.00040 | 26 ft | 10 kts | 63° |
| 2026-05-06 14:47 | 14.59216 | -61.00020 | 26 ft | 10 kts | 354° |
| 2026-05-06 14:48 | 14.59293 | -61.00035 | 27 ft | 13 kts | 349° |
| 2026-05-06 14:48 | 14.59375 | -61.00050 | 27 ft | 11 kts | 349° |
| 2026-05-06 14:48 | 14.59434 | -61.00044 | 27 ft | 6 kts | 19° |
| 2026-05-06 14:48 | 14.59461 | -61.00033 | 27 ft | 0 kts | 21° |